createdAt,value
2022-11-01T00:03:23.456Z,71.97
2022-11-01T00:08:25.958Z,128.93
2022-11-01T00:13:28.303Z,100.03
2022-11-01T00:18:30.693Z,110.87
2022-11-01T00:23:33.352Z,100.63
2022-11-01T00:28:35.841Z,97.63
2022-11-01T00:33:39.402Z,119.30
2022-11-01T00:38:42.026Z,79.83
2022-11-01T00:43:44.333Z,101.90
2022-11-01T00:48:46.697Z,79.07
2022-11-01T00:53:49.113Z,68.03
2022-11-01T00:58:51.442Z,126.23
2022-11-01T01:03:53.772Z,115.00
2022-11-01T01:09:00.477Z,86.43
2022-11-01T01:14:03.020Z,94.97
2022-11-01T01:19:05.375Z,78.03
2022-11-01T01:24:07.728Z,65.93
2022-11-01T01:29:10.139Z,69.20
2022-11-01T01:34:12.455Z,73.37
2022-11-01T01:39:14.942Z,119.17
2022-11-01T01:44:42.294Z,88.90
2022-11-01T01:49:46.241Z,139.67
2022-11-01T01:54:51.144Z,85.40
2022-11-01T01:59:53.762Z,83.07
2022-11-01T02:05:06.348Z,162.63
2022-11-01T02:10:09.540Z,121.07
2022-11-01T02:15:13.679Z,147.53
2022-11-01T02:20:21.937Z,103.50
2022-11-01T02:25:37.128Z,141.87
2022-11-01T02:30:51.712Z,117.47
2022-11-01T02:36:14.279Z,116.20
2022-11-01T02:41:44.873Z,111.20
2022-11-01T02:47:03.385Z,77.30
2022-11-01T02:52:08.841Z,124.17
2022-11-01T02:57:17.278Z,102.87
2022-11-01T03:02:41.736Z,87.23
2022-11-01T03:07:48.329Z,139.17
2022-11-01T03:13:09.921Z,112.87
2022-11-01T03:18:18.493Z,88.13
2022-11-01T03:23:30.351Z,126.97
2022-11-01T03:28:39.756Z,93.03
2022-11-01T03:33:47.845Z,116.43
2022-11-01T03:38:56.418Z,79.17
2022-11-01T03:43:59.939Z,115.00
2022-11-01T03:49:02.335Z,71.67
2022-11-01T03:54:06.521Z,112.03
2022-11-01T03:59:10.670Z,103.50
2022-11-01T04:04:13.064Z,119.97
2022-11-01T04:09:15.448Z,120.43
2022-11-01T04:14:36.438Z,103.90
2022-11-01T04:19:57.365Z,92.07
2022-11-01T04:24:59.675Z,79.10
2022-11-01T04:30:02.253Z,87.13
2022-11-01T04:35:05.036Z,82.97
2022-11-01T04:40:07.976Z,69.50
2022-11-01T04:45:11.261Z,69.37
2022-11-01T04:50:13.683Z,75.77
2022-11-01T04:55:16.064Z,74.63
2022-11-01T05:00:18.535Z,76.27
2022-11-01T05:05:20.947Z,77.13
2022-11-01T05:10:23.271Z,68.30
2022-11-01T05:15:25.754Z,81.73
2022-11-01T05:20:29.237Z,87.77
2022-11-01T05:25:35.485Z,90.27
2022-11-01T05:30:42.073Z,91.57
2022-11-01T05:35:44.428Z,92.40
2022-11-01T05:40:46.883Z,90.50
2022-11-01T05:45:49.274Z,96.27
2022-11-01T05:50:51.611Z,101.20
2022-11-01T05:55:56.717Z,100.90
2022-11-01T06:01:00.551Z,92.93
2022-11-01T06:06:04.000Z,91.10
2022-11-01T06:11:07.007Z,96.13
2022-11-01T06:16:09.392Z,112.03
2022-11-01T06:21:11.824Z,92.30
2022-11-01T06:26:14.699Z,116.93
2022-11-01T06:31:17.121Z,121.23
2022-11-01T06:36:19.551Z,94.53
2022-11-01T06:41:21.917Z,90.43
2022-11-01T06:46:24.298Z,86.10
2022-11-01T06:51:27.367Z,84.73
2022-11-01T06:56:29.744Z,83.17
2022-11-01T07:01:32.588Z,114.40
2022-11-01T07:06:35.121Z,103.33
2022-11-01T07:11:37.679Z,131.87
2022-11-01T07:16:40.172Z,111.30
2022-11-01T07:21:42.572Z,87.17
2022-11-01T07:26:45.039Z,76.77
2022-11-01T07:31:48.071Z,79.80
2022-11-01T07:36:53.166Z,80.30
2022-11-01T07:41:55.635Z,70.27
2022-11-01T07:46:58.057Z,84.63
2022-11-01T07:52:02.935Z,77.43
2022-11-01T07:57:05.960Z,76.23
2022-11-01T08:02:09.447Z,66.83
2022-11-01T08:07:12.033Z,73.10
2022-11-01T08:12:14.519Z,80.40
2022-11-01T08:17:16.959Z,77.17
2022-11-01T08:22:19.462Z,68.93
2022-11-01T08:27:21.851Z,73.17
2022-11-01T08:32:24.502Z,67.63
2022-11-01T08:37:26.906Z,75.43
2022-11-01T08:42:29.279Z,71.23
2022-11-01T08:47:33.594Z,82.03
2022-11-01T08:52:36.422Z,77.33
2022-11-01T08:57:41.602Z,112.80
2022-11-01T09:02:44.198Z,109.47
2022-11-01T09:07:46.611Z,77.40
2022-11-01T09:12:49.060Z,87.07
2022-11-01T09:17:51.531Z,82.93
2022-11-01T09:22:53.925Z,82.63
2022-11-01T09:27:57.886Z,84.67
2022-11-01T09:33:05.187Z,77.80
2022-11-01T09:38:07.883Z,84.20
2022-11-01T09:43:19.103Z,90.70
2022-11-01T09:48:21.649Z,106.83
2022-11-01T09:53:27.734Z,94.90
2022-11-01T09:58:42.075Z,83.77
2022-11-01T10:04:11.251Z,101.53
2022-11-01T10:09:38.596Z,94.00
2022-11-01T10:14:59.741Z,96.40
2022-11-01T10:20:04.525Z,87.57
2022-11-01T10:25:21.337Z,88.87
2022-11-01T10:30:24.207Z,87.17
2022-11-01T10:35:35.613Z,102.97
2022-11-01T10:40:43.429Z,87.33
2022-11-01T10:45:49.914Z,98.73
2022-11-01T10:50:54.663Z,107.07
2022-11-01T10:56:01.868Z,113.33
2022-11-01T11:01:07.294Z,107.93
2022-11-01T11:06:13.693Z,105.50
2022-11-01T11:11:18.673Z,113.57
2022-11-01T11:16:46.778Z,119.73
2022-11-01T11:21:51.708Z,110.90
2022-11-01T11:26:57.924Z,102.57
2022-11-01T11:32:01.300Z,123.87
2022-11-01T11:37:06.684Z,133.17
2022-11-01T11:42:19.053Z,142.83
2022-11-01T11:47:34.605Z,127.37
2022-11-01T11:52:39.839Z,109.63
2022-11-01T11:57:54.296Z,105.80
2022-11-01T12:02:56.757Z,120.60
2022-11-01T12:07:59.356Z,112.93
2022-11-01T12:13:04.499Z,103.00
2022-11-01T12:18:15.728Z,113.63
2022-11-01T12:23:32.911Z,95.93
2022-11-01T12:29:01.117Z,98.30
2022-11-01T12:34:26.625Z,102.33
2022-11-01T12:39:57.672Z,107.43
2022-11-01T12:45:11.937Z,109.73
2022-11-01T12:50:22.480Z,112.03
2022-11-01T12:55:43.899Z,122.40
2022-11-01T13:00:55.420Z,113.50
2022-11-01T13:06:15.456Z,104.23
2022-11-01T13:12:04.686Z,111.20
2022-11-01T13:17:38.586Z,104.60
2022-11-01T13:22:46.343Z,95.17
2022-11-01T13:28:16.056Z,95.03
2022-11-01T13:33:28.336Z,100.63
2022-11-01T13:38:51.800Z,104.30
2022-11-01T13:44:11.202Z,105.33
2022-11-01T13:49:28.333Z,161.37
2022-11-01T13:54:48.527Z,142.93
2022-11-01T13:59:55.668Z,230.47
2022-11-01T14:04:59.150Z,170.80
2022-11-01T14:10:11.794Z,110.80
2022-11-01T14:15:22.123Z,96.00
2022-11-01T14:20:33.367Z,117.47
2022-11-01T14:25:35.757Z,98.80
2022-11-01T14:30:43.399Z,90.47
2022-11-01T14:35:52.579Z,86.80
2022-11-01T14:40:59.821Z,120.90
2022-11-01T14:46:13.447Z,162.80
2022-11-01T14:51:40.265Z,154.07
2022-11-01T14:56:49.825Z,255.73
2022-11-01T15:02:01.163Z,211.77
2022-11-01T15:07:27.828Z,194.57
2022-11-01T15:12:54.345Z,174.03
2022-11-01T15:18:06.337Z,169.33
2022-11-01T15:23:18.127Z,171.77
2022-11-01T15:28:26.249Z,179.80
2022-11-01T15:33:32.577Z,211.07
2022-11-01T15:38:48.089Z,181.13
2022-11-01T15:43:54.228Z,240.57
2022-11-01T15:49:01.245Z,234.33
2022-11-01T15:54:13.092Z,190.60
2022-11-01T15:59:22.255Z,194.00
2022-11-01T16:04:28.823Z,205.33
2022-11-01T16:09:52.092Z,211.33
2022-11-01T16:14:56.572Z,186.47
2022-11-01T16:19:59.532Z,208.83
2022-11-01T16:25:03.103Z,183.13
2022-11-01T16:30:10.501Z,205.10
2022-11-01T16:35:34.046Z,192.43
2022-11-01T16:40:38.342Z,216.20
2022-11-01T16:45:41.499Z,182.70
2022-11-01T16:50:43.782Z,192.60
2022-11-01T16:55:46.137Z,209.47
2022-11-01T17:00:56.667Z,206.40
2022-11-01T17:05:59.282Z,226.07
2022-11-01T17:11:01.651Z,279.47
2022-11-01T17:16:06.059Z,301.17
2022-11-01T17:21:11.667Z,271.63
2022-11-01T17:26:15.727Z,280.53
2022-11-01T17:31:18.511Z,276.37
2022-11-01T17:36:20.864Z,224.43
2022-11-01T17:41:23.256Z,218.73
2022-11-01T17:46:26.317Z,214.70
2022-11-01T17:51:28.703Z,246.43
2022-11-01T17:56:31.354Z,293.60
2022-11-01T18:01:33.902Z,314.20
2022-11-01T18:06:36.407Z,269.73
2022-11-01T18:12:05.923Z,241.60
2022-11-01T18:17:33.497Z,216.73
2022-11-01T18:22:51.485Z,207.73
2022-11-01T18:27:56.098Z,225.20
2022-11-01T18:33:05.754Z,210.20
2022-11-01T18:38:10.957Z,221.47
2022-11-01T18:43:13.274Z,196.07
2022-11-01T18:48:20.157Z,200.60
2022-11-01T18:53:23.761Z,176.77
2022-11-01T18:58:29.359Z,188.07
2022-11-01T19:03:32.084Z,185.60
2022-11-01T19:08:35.577Z,229.77
2022-11-01T19:13:38.067Z,260.43
2022-11-01T19:18:43.383Z,248.47
2022-11-01T19:23:51.511Z,174.63
2022-11-01T19:28:54.134Z,194.57
2022-11-01T19:34:03.734Z,190.93
2022-11-01T19:39:26.339Z,191.07
2022-11-01T19:44:30.714Z,153.40
2022-11-01T19:49:36.320Z,172.90
2022-11-01T19:54:42.541Z,169.63
2022-11-01T19:59:44.916Z,146.73
2022-11-01T20:04:56.328Z,172.90
2022-11-01T20:09:59.047Z,167.53
2022-11-01T20:15:01.502Z,166.60
2022-11-01T20:20:04.393Z,114.83
2022-11-01T20:25:07.044Z,122.43
2022-11-01T20:30:10.245Z,153.03
2022-11-01T20:35:12.958Z,204.50
2022-11-01T20:40:17.220Z,162.40
2022-11-01T20:45:19.575Z,182.70
2022-11-01T20:50:21.856Z,201.50
2022-11-01T20:55:24.146Z,226.20
2022-11-01T21:00:27.125Z,175.17
2022-11-01T21:05:31.244Z,162.77
2022-11-01T21:10:35.963Z,144.53
2022-11-01T21:15:39.725Z,142.13
2022-11-01T21:20:45.215Z,133.93
2022-11-01T21:25:52.109Z,119.23
2022-11-01T21:30:55.082Z,108.47
2022-11-01T21:35:57.374Z,107.13
2022-11-01T21:40:59.897Z,102.37
2022-11-01T21:46:02.290Z,91.57
2022-11-01T21:51:07.339Z,81.13
2022-11-01T21:56:09.695Z,77.73
2022-11-01T22:01:12.065Z,74.33
2022-11-01T22:06:14.423Z,72.27
2022-11-01T22:11:19.475Z,55.83
2022-11-01T22:16:25.938Z,59.60
2022-11-01T22:21:29.056Z,46.83
2022-11-01T22:26:31.560Z,68.33
2022-11-01T22:31:33.942Z,59.83
2022-11-01T22:36:37.717Z,70.47
2022-11-01T22:41:42.310Z,58.30
2022-11-01T22:46:56.893Z,40.50
2022-11-01T22:52:24.005Z,40.10
2022-11-01T22:57:31.865Z,43.60
2022-11-01T23:02:41.294Z,38.90
2022-11-01T23:07:50.117Z,42.30
2022-11-01T23:13:19.502Z,45.83
2022-11-01T23:18:24.899Z,46.70
2022-11-01T23:23:27.963Z,43.03
2022-11-01T23:28:35.027Z,42.30
2022-11-01T23:33:43.427Z,29.83
2022-11-01T23:38:52.977Z,26.70
2022-11-01T23:43:57.856Z,33.63
2022-11-01T23:49:23.486Z,35.83
2022-11-01T23:54:28.942Z,31.63
2022-11-01T23:59:31.896Z,36.63
